Time;durP1;ratioP1;P1;durP2;ratioP2;P2;SDS_P1;SDS_P2;PMS_P1;PMS_P2;Temp;Humidity;BMP_temperature;BMP_pressure;BME280_temperature;BME280_humidity;BME280_pressure;Samples;Min_cycle;Max_cycle;Signal;HPM_P1;HPM_P2
2024/04/17 00:01:36;;;;;;;10.00;4.50;;;;;;;4.37;76.65;97360.71;226945;1272;22748;-80
2024/04/17 00:06:38;;;;;;;7.30;4.10;;;;;;;4.46;77.02;97356.80;226908;1273;22544;-80
2024/04/17 00:11:40;;;;;;;9.20;3.80;;;;;;;4.56;77.00;97354.02;226771;1269;24219;-79
2024/04/17 00:16:42;;;;;;;6.90;3.70;;;;;;;4.68;77.06;97344.55;226925;1272;24196;-79
2024/04/17 00:21:44;;;;;;;6.80;3.20;;;;;;;4.81;77.37;97337.16;226808;1273;22704;-79
2024/04/17 00:26:46;;;;;;;6.00;3.60;;;;;;;4.96;77.66;97328.23;226779;1266;22604;-79
2024/04/17 00:31:48;;;;;;;5.90;3.30;;;;;;;5.09;77.89;97331.17;226783;1272;22468;-79
2024/04/17 00:36:50;;;;;;;6.50;3.30;;;;;;;5.21;77.85;97327.92;226882;1272;22536;-79
2024/04/17 00:41:52;;;;;;;5.70;3.30;;;;;;;5.31;78.05;97323.14;226830;1266;22768;-80
2024/04/17 00:46:55;;;;;;;4.10;2.80;;;;;;;5.39;77.88;97318.82;227179;1272;25887;-79
2024/04/17 00:51:57;;;;;;;6.10;3.00;;;;;;;5.47;78.19;97317.68;227183;1272;22578;-79
2024/04/17 00:56:59;;;;;;;4.30;2.70;;;;;;;5.55;78.04;97313.36;227243;1272;22540;-79
2024/04/17 01:02:00;;;;;;;3.20;2.20;;;;;;;5.62;77.83;97313.34;227205;1272;22527;-80
2024/04/17 01:07:03;;;;;;;4.10;2.20;;;;;;;5.67;78.11;97308.40;227347;1272;22553;-80
2024/04/17 01:12:05;;;;;;;2.70;2.00;;;;;;;5.74;78.34;97301.64;227349;1269;22576;-80
2024/04/17 01:17:07;;;;;;;5.20;2.50;;;;;;;5.79;77.99;97303.95;226708;1269;442588;-80
2024/04/17 01:22:08;;;;;;;5.50;2.20;;;;;;;5.85;78.16;97295.71;227322;1269;22540;-79
2024/04/17 01:27:10;;;;;;;5.40;2.30;;;;;;;5.89;77.92;97300.94;227384;1270;22564;-81
2024/04/17 01:32:12;;;;;;;5.90;2.90;;;;;;;5.92;77.90;97288.41;227205;1272;22592;-79
2024/04/17 01:37:13;;;;;;;5.60;2.60;;;;;;;5.94;77.69;97282.52;227156;1270;22528;-80
2024/04/17 01:42:15;;;;;;;5.60;2.60;;;;;;;5.95;77.97;97280.77;227328;1269;22542;-79
2024/04/17 01:47:17;;;;;;;4.80;2.40;;;;;;;5.96;78.17;97275.74;227281;1272;22535;-79
2024/04/17 01:52:19;;;;;;;4.10;2.30;;;;;;;6.00;77.82;97274.08;227376;1270;22626;-81
2024/04/17 01:57:20;;;;;;;3.90;2.40;;;;;;;6.01;78.29;97275.09;227167;1272;24197;-78
2024/04/17 02:02:22;;;;;;;4.00;2.20;;;;;;;6.00;78.14;97278.91;227210;1270;22532;-82
2024/04/17 02:07:24;;;;;;;4.00;2.30;;;;;;;6.00;78.58;97280.73;227234;1269;22532;-80
2024/04/17 02:12:25;;;;;;;2.40;2.10;;;;;;;5.96;78.45;97283.45;227187;1272;23007;-80
2024/04/17 02:17:27;;;;;;;5.10;2.50;;;;;;;5.91;78.88;97282.56;227249;1272;22590;-81
2024/04/17 02:22:29;;;;;;;3.80;2.70;;;;;;;5.88;78.89;97280.70;227408;1270;23402;-81
2024/04/17 02:27:31;;;;;;;3.10;2.30;;;;;;;5.85;79.37;97281.20;227403;1272;22527;-80
2024/04/17 02:32:32;;;;;;;5.40;3.10;;;;;;;5.81;79.68;97277.05;227250;1272;22635;-82
2024/04/17 02:37:34;;;;;;;4.10;2.70;;;;;;;5.72;80.21;97276.79;227147;1272;22531;-79
2024/04/17 02:42:36;;;;;;;3.80;2.60;;;;;;;5.61;80.28;97276.41;227413;1269;22507;-80
2024/04/17 02:47:38;;;;;;;6.90;3.30;;;;;;;5.52;81.04;97273.05;227244;1272;25281;-81
2024/04/17 02:52:39;;;;;;;4.40;2.70;;;;;;;5.45;80.80;97272.70;227369;1272;25285;-80
2024/04/17 02:57:41;;;;;;;5.70;3.70;;;;;;;5.39;81.48;97274.90;227223;1272;22544;-80
2024/04/17 03:02:43;;;;;;;5.80;4.60;;;;;;;5.31;81.88;97279.66;227274;1272;22544;-81
2024/04/17 03:07:46;;;;;;;6.30;4.70;;;;;;;5.24;82.09;97280.65;227381;1269;22626;-81
2024/04/17 03:12:47;;;;;;;4.10;3.50;;;;;;;5.18;82.47;97286.90;227290;1254;22538;-81
2024/04/17 03:17:49;;;;;;;3.50;3.00;;;;;;;5.11;82.44;97291.99;227221;1272;22518;-81
2024/04/17 03:22:51;;;;;;;4.60;2.90;;;;;;;5.05;82.73;97302.17;227239;1272;22555;-81
2024/04/17 03:27:53;;;;;;;2.70;1.90;;;;;;;4.97;82.69;97309.89;227254;1271;22550;-81
2024/04/17 03:32:58;;;;;;;2.40;1.90;;;;;;;4.89;82.89;97310.42;227348;1272;22546;-80
2024/04/17 03:38:00;;;;;;;2.00;1.60;;;;;;;4.81;82.55;97312.96;227254;1257;22569;-81
2024/04/17 03:43:02;;;;;;;2.50;1.80;;;;;;;4.76;82.55;97319.56;227280;1272;25457;-80
2024/04/17 03:48:04;;;;;;;2.60;1.90;;;;;;;4.73;82.99;97330.94;227315;1272;22489;-82
2024/04/17 03:53:06;;;;;;;2.30;2.10;;;;;;;4.68;82.87;97336.31;227238;1272;22464;-82
2024/04/17 03:58:09;;;;;;;3.10;2.50;;;;;;;4.66;82.91;97344.10;227386;1269;23147;-82
2024/04/17 04:03:10;;;;;;;3.90;3.50;;;;;;;4.65;83.19;97352.10;227265;1272;22537;-81
2024/04/17 04:08:12;;;;;;;4.20;3.60;;;;;;;4.64;83.06;97358.71;227085;1272;22635;-80
2024/04/17 04:13:14;;;;;;;5.60;3.90;;;;;;;4.64;83.13;97368.98;227194;1272;22573;-83
2024/04/17 04:18:16;;;;;;;4.40;3.90;;;;;;;4.65;83.36;97375.63;227269;1272;22527;-83
2024/04/17 04:23:20;;;;;;;5.20;4.70;;;;;;;4.68;83.09;97377.68;227252;1272;22544;-82
2024/04/17 04:28:22;;;;;;;6.00;5.10;;;;;;;4.71;83.43;97377.96;227260;1264;23435;-83
2024/04/17 04:33:24;;;;;;;7.30;5.70;;;;;;;4.74;83.51;97385.52;227283;1272;22550;-84
2024/04/17 04:38:26;;;;;;;7.50;6.60;;;;;;;4.75;84.13;97394.29;227250;1272;22535;-81
2024/04/17 04:43:28;;;;;;;9.00;6.60;;;;;;;4.77;84.30;97395.63;227227;1272;22831;-82
2024/04/17 04:48:30;;;;;;;9.30;8.00;;;;;;;4.78;84.45;97404.86;227254;1272;22541;-81
2024/04/17 04:53:32;;;;;;;11.70;9.50;;;;;;;4.79;84.52;97412.58;227186;1272;22607;-82
2024/04/17 04:58:34;;;;;;;11.00;9.80;;;;;;;4.80;84.69;97420.73;227304;1272;22580;-82
2024/04/17 05:03:36;;;;;;;10.30;9.30;;;;;;;4.78;85.03;97429.89;227244;1272;24231;-82
2024/04/17 05:08:41;;;;;;;11.00;8.20;;;;;;;4.67;84.85;97435.05;227191;1269;25278;-82
2024/04/17 05:13:43;;;;;;;11.70;8.50;;;;;;;4.49;84.93;97447.63;227247;1272;22685;-82
2024/04/17 05:18:44;;;;;;;8.20;7.10;;;;;;;4.35;84.67;97447.06;227181;1272;22739;-82
2024/04/17 05:23:46;;;;;;;8.90;7.90;;;;;;;4.23;84.75;97454.14;227241;1272;22572;-81
2024/04/17 05:28:48;;;;;;;9.30;8.40;;;;;;;4.15;85.34;97457.05;227440;1272;22641;-82
2024/04/17 05:33:50;;;;;;;9.40;8.10;;;;;;;4.08;85.24;97462.58;227164;1272;25976;-82
2024/04/17 05:38:52;;;;;;;9.60;8.30;;;;;;;4.00;84.98;97462.14;227415;1270;22552;-82
2024/04/17 05:43:53;;;;;;;8.80;7.90;;;;;;;3.97;85.13;97463.03;227246;1272;24252;-82
2024/04/17 05:48:56;;;;;;;8.60;7.80;;;;;;;3.96;85.24;97465.25;227058;1257;22535;-83
2024/04/17 05:53:57;;;;;;;10.50;8.10;;;;;;;3.95;85.23;97470.91;227048;1257;22948;-83
2024/04/17 05:58:59;;;;;;;8.70;7.90;;;;;;;3.97;85.22;97472.98;226878;1266;22538;-89
2024/04/17 06:04:02;;;;;;;9.00;8.10;;;;;;;4.01;85.35;97477.67;226657;1257;24238;-79
2024/04/17 06:09:04;;;;;;;9.50;8.50;;;;;;;4.09;85.41;97482.86;226667;1258;25409;-79
2024/04/17 06:14:06;;;;;;;8.80;7.90;;;;;;;4.26;85.16;97487.80;226622;1258;22536;-80
2024/04/17 06:19:11;;;;;;;9.90;8.90;;;;;;;4.52;85.38;97489.60;226537;1251;22528;-81
2024/04/17 06:24:13;;;;;;;8.70;7.70;;;;;;;4.75;84.89;97494.59;226684;1251;22543;-82
2024/04/17 06:29:14;;;;;;;8.60;7.30;;;;;;;4.93;84.64;97497.46;226622;1253;24389;-80
2024/04/17 06:34:16;;;;;;;7.00;6.30;;;;;;;5.04;84.48;97497.19;226637;1253;22557;-76
2024/04/17 06:39:20;;;;;;;6.40;4.80;;;;;;;5.15;84.04;97502.39;226304;1257;22535;-82
2024/04/17 06:44:22;;;;;;;5.20;4.00;;;;;;;5.30;83.75;97506.21;226521;1262;25479;-82
2024/04/17 06:49:25;;;;;;;4.10;3.50;;;;;;;5.39;82.51;97506.20;226541;1255;22521;-83
2024/04/17 06:54:27;;;;;;;4.10;3.30;;;;;;;5.41;82.19;97502.41;226695;1251;22531;-82
2024/04/17 06:59:29;;;;;;;3.30;2.80;;;;;;;5.53;82.27;97501.71;226498;1257;23301;-82
2024/04/17 07:04:32;;;;;;;3.10;2.80;;;;;;;5.69;81.48;97507.30;226594;1267;22539;-81
2024/04/17 07:09:34;;;;;;;2.70;2.50;;;;;;;5.88;81.24;97512.92;226410;1256;24255;-80
2024/04/17 07:14:36;;;;;;;2.50;2.30;;;;;;;5.98;80.46;97518.09;226721;1257;22552;-81
2024/04/17 07:19:37;;;;;;;3.80;2.70;;;;;;;6.09;79.80;97516.24;226759;1267;22539;-81
2024/04/17 07:24:39;;;;;;;3.00;2.70;;;;;;;6.10;79.25;97519.59;227030;1258;22539;-82
2024/04/17 07:29:42;;;;;;;2.70;2.50;;;;;;;6.03;79.19;97531.66;227039;1270;22535;-82
2024/04/17 07:34:44;;;;;;;3.00;2.70;;;;;;;6.00;79.21;97529.57;226687;1250;22885;-83
2024/04/17 07:39:46;;;;;;;4.40;3.10;;;;;;;6.09;79.96;97531.41;226784;1258;22597;-85
2024/04/17 07:44:48;;;;;;;3.80;2.80;;;;;;;6.22;79.71;97530.39;226876;1267;23632;-82
2024/04/17 07:49:51;;;;;;;3.60;3.30;;;;;;;6.27;79.14;97537.18;226985;1257;22538;-82
2024/04/17 07:54:53;;;;;;;3.40;3.10;;;;;;;6.27;78.88;97533.84;226946;1272;22535;-85
2024/04/17 07:59:54;;;;;;;4.00;3.00;;;;;;;6.36;78.83;97533.14;226871;1254;22727;-81
2024/04/17 08:04:57;;;;;;;2.70;2.40;;;;;;;6.47;78.11;97538.19;226989;1254;22534;-84
2024/04/17 08:09:59;;;;;;;2.30;2.10;;;;;;;6.65;77.06;97541.66;227151;1267;22527;-85
2024/04/17 08:15:01;;;;;;;2.00;1.40;;;;;;;6.80;77.02;97539.98;226713;1263;22562;-82
2024/04/17 08:20:03;;;;;;;1.80;1.70;;;;;;;6.81;76.16;97546.36;226891;1264;22539;-81
2024/04/17 08:25:05;;;;;;;2.70;2.10;;;;;;;6.66;76.37;97555.13;226930;1267;22603;-85
2024/04/17 08:30:07;;;;;;;3.00;2.70;;;;;;;6.43;75.83;97562.96;226834;1268;25298;-84
2024/04/17 08:35:09;;;;;;;3.20;2.90;;;;;;;6.30;76.20;97563.52;227032;1257;22617;-81
2024/04/17 08:40:16;;;;;;;3.90;3.10;;;;;;;6.36;76.42;97569.95;226880;1270;22548;-84
2024/04/17 08:45:30;;;;;;;3.20;2.90;;;;;;;6.46;76.64;97568.43;226988;1272;22539;-85
2024/04/17 08:50:53;;;;;;;3.10;2.60;;;;;;;6.56;76.74;97567.62;227102;1260;22536;-83
2024/04/17 08:56:02;;;;;;;2.60;2.40;;;;;;;6.71;76.80;97571.94;226971;1267;22555;-85
2024/04/17 09:01:11;;;;;;;3.60;3.30;;;;;;;6.90;76.49;97573.38;227488;1267;22536;-82
2024/04/17 09:06:13;;;;;;;4.80;3.00;;;;;;;7.31;76.71;97570.73;226975;1266;22549;-83
2024/04/17 09:11:15;;;;;;;3.40;2.70;;;;;;;7.75;76.24;97579.46;227055;1266;22592;-85
2024/04/17 09:16:17;;;;;;;3.40;3.10;;;;;;;7.83;75.00;97580.02;227009;1266;22666;-78
2024/04/17 09:21:19;;;;;;;3.10;2.80;;;;;;;7.92;75.05;97588.67;226907;1264;22570;-81
2024/04/17 09:26:21;;;;;;;3.80;2.80;;;;;;;7.90;74.33;97592.72;226977;1267;24254;-80
2024/04/17 09:31:25;;;;;;;3.10;2.80;;;;;;;7.74;74.41;97598.16;226827;1264;22549;-83
2024/04/17 09:36:27;;;;;;;2.50;2.30;;;;;;;7.62;74.63;97606.13;227036;1257;24205;-80
2024/04/17 09:41:29;;;;;;;3.20;2.90;;;;;;;7.45;75.00;97605.34;226751;1257;26099;-78
2024/04/17 09:46:34;;;;;;;2.80;2.60;;;;;;;7.51;75.34;97602.48;226960;1257;22954;-82
2024/04/17 09:51:39;;;;;;;2.50;2.30;;;;;;;7.80;75.55;97599.41;226799;1257;22875;-81
2024/04/17 09:56:41;;;;;;;2.50;2.30;;;;;;;7.97;75.39;97601.48;226784;1254;22584;-82
2024/04/17 10:01:45;;;;;;;3.90;3.50;;;;;;;7.93;75.23;97608.52;226874;1257;22553;-81
2024/04/17 10:06:48;;;;;;;5.10;4.60;;;;;;;7.67;74.71;97611.02;226624;1257;22570;-80
2024/04/17 10:11:52;;;;;;;3.70;3.40;;;;;;;7.42;75.08;97611.11;227072;1266;22541;-81
2024/04/17 10:16:55;;;;;;;4.20;3.10;;;;;;;7.34;75.62;97620.78;227016;1253;22544;-80
2024/04/17 10:21:57;;;;;;;4.00;3.60;;;;;;;7.58;75.70;97614.80;227010;1269;22552;-78
2024/04/17 10:27:04;;;;;;;3.10;2.90;;;;;;;8.10;76.29;97610.53;227043;1257;24206;-79
2024/04/17 10:32:14;;;;;;;4.10;3.30;;;;;;;8.33;74.95;97616.78;226944;1251;24219;-78
2024/04/17 10:37:18;;;;;;;4.30;3.40;;;;;;;8.44;74.57;97620.06;226881;1267;22567;-81
2024/04/17 10:42:20;;;;;;;4.80;4.40;;;;;;;8.51;74.43;97625.05;226879;1266;22554;-80
2024/04/17 10:47:25;;;;;;;4.20;3.80;;;;;;;8.53;74.39;97628.85;226927;1267;22537;-84
2024/04/17 10:52:31;;;;;;;3.50;3.20;;;;;;;8.57;74.14;97622.90;227032;1250;22550;-83
2024/04/17 10:57:34;;;;;;;2.80;2.60;;;;;;;8.75;74.02;97623.61;227224;1259;25421;-81
2024/04/17 11:02:36;;;;;;;2.90;2.70;;;;;;;8.87;73.47;97621.81;227324;1260;22543;-79
2024/04/17 11:07:38;;;;;;;2.40;2.20;;;;;;;8.71;73.39;97633.49;227045;1267;22574;-83
2024/04/17 11:12:40;;;;;;;2.30;2.10;;;;;;;8.39;73.11;97634.60;226922;1257;22608;-81
2024/04/17 11:17:42;;;;;;;2.30;2.10;;;;;;;8.19;73.39;97640.30;226812;1257;23093;-79
2024/04/17 11:22:44;;;;;;;2.40;2.20;;;;;;;8.21;74.20;97640.27;226853;1257;22569;-81
2024/04/17 11:27:46;;;;;;;2.50;2.20;;;;;;;8.36;74.11;97647.83;227012;1251;22551;-78
2024/04/17 11:32:48;;;;;;;2.50;2.30;;;;;;;8.47;73.97;97646.06;226860;1251;22542;-84
2024/04/17 11:37:51;;;;;;;2.20;2.00;;;;;;;8.67;73.77;97647.80;226742;1257;22579;-84
2024/04/17 11:42:53;;;;;;;2.20;2.00;;;;;;;9.00;73.55;97645.69;226648;1254;22539;-83
2024/04/17 11:47:55;;;;;;;3.30;3.00;;;;;;;9.20;72.96;97642.68;226773;1257;22570;-81
2024/04/17 11:52:57;;;;;;;2.80;2.60;;;;;;;9.24;72.71;97647.17;227186;1257;22550;-84
2024/04/17 11:58:04;;;;;;;3.30;3.00;;;;;;;9.02;72.52;97654.23;226786;1260;22598;-83
2024/04/17 12:03:06;;;;;;;4.00;3.70;;;;;;;8.61;72.48;97656.95;227080;1257;23055;-84
2024/04/17 12:08:12;;;;;;;5.80;4.70;;;;;;;8.14;73.32;97658.47;226545;1256;22589;-82
2024/04/17 12:13:14;;;;;;;6.00;4.90;;;;;;;7.81;74.31;97655.89;227161;1257;22542;-83
2024/04/17 12:18:16;;;;;;;5.30;4.80;;;;;;;7.73;74.96;97653.06;226926;1257;22540;-81
2024/04/17 12:23:19;;;;;;;6.20;5.20;;;;;;;7.78;75.59;97653.77;227063;1256;22618;-82
2024/04/17 12:28:21;;;;;;;5.10;4.60;;;;;;;7.75;75.47;97650.04;226786;1250;25240;-82
2024/04/17 12:33:24;;;;;;;5.50;5.00;;;;;;;7.74;75.74;97649.67;226766;1257;22568;-83
2024/04/17 12:38:28;;;;;;;6.30;5.70;;;;;;;7.85;75.78;97659.17;227329;1257;22541;-82
2024/04/17 12:43:30;;;;;;;7.00;5.30;;;;;;;7.94;75.90;97658.67;226889;1257;22530;-81
2024/04/17 12:48:32;;;;;;;5.40;3.80;;;;;;;7.91;76.01;97660.84;227014;1266;22579;-78
2024/04/17 12:53:34;;;;;;;4.20;3.80;;;;;;;7.79;76.05;97664.66;226904;1253;22645;-80
2024/04/17 12:58:36;;;;;;;4.70;4.10;;;;;;;7.78;76.56;97660.97;226974;1269;22542;-80
2024/04/17 13:03:38;;;;;;;4.80;4.10;;;;;;;7.95;76.66;97659.77;227005;1266;24288;-81
2024/04/17 13:08:40;;;;;;;3.80;3.50;;;;;;;8.02;76.43;97655.16;227143;1267;22964;-78
2024/04/17 13:13:42;;;;;;;3.80;3.20;;;;;;;8.00;76.56;97654.56;227105;1267;22543;-83
2024/04/17 13:18:45;;;;;;;3.20;2.90;;;;;;;7.91;76.27;97655.73;226961;1247;265494;-82
2024/04/17 13:23:48;;;;;;;3.70;3.40;;;;;;;7.99;76.68;97658.39;226584;1260;22580;-80
2024/04/17 13:28:49;;;;;;;5.00;4.40;;;;;;;8.12;77.21;97660.30;226581;1266;25498;-79
2024/04/17 13:33:51;;;;;;;2.50;2.30;;;;;;;8.01;77.08;97666.91;226688;1267;22933;-84
2024/04/17 13:38:54;;;;;;;3.30;2.90;;;;;;;7.79;77.05;97673.44;226340;1261;22553;-80
2024/04/17 13:43:55;;;;;;;2.70;2.50;;;;;;;7.56;77.88;97672.21;226579;1270;23299;-84
2024/04/17 13:48:59;;;;;;;2.40;2.20;;;;;;;7.38;78.62;97677.15;226515;1260;22549;-81
2024/04/17 13:54:01;;;;;;;2.70;2.50;;;;;;;7.29;78.81;97676.40;226773;1266;22534;-77
2024/04/17 13:59:03;;;;;;;2.70;2.50;;;;;;;7.41;79.05;97677.09;226720;1263;22550;-79
2024/04/17 14:04:05;;;;;;;2.80;2.60;;;;;;;7.56;78.89;97673.99;226427;1268;22562;-80
2024/04/17 14:09:07;;;;;;;2.60;2.40;;;;;;;7.63;78.61;97677.75;226513;1264;22574;-80
2024/04/17 14:14:10;;;;;;;3.00;2.80;;;;;;;7.67;78.28;97669.20;226732;1270;23083;-80
2024/04/17 14:19:12;;;;;;;3.10;2.70;;;;;;;7.77;78.42;97676.14;226680;1275;22639;-81
2024/04/17 14:24:14;;;;;;;3.10;2.80;;;;;;;7.81;77.76;97677.37;226720;1273;22557;-81
2024/04/17 14:29:16;;;;;;;4.40;3.70;;;;;;;7.72;77.36;97685.98;226828;1275;22557;-81
2024/04/17 14:34:18;;;;;;;3.30;3.00;;;;;;;7.55;77.77;97685.27;226678;1275;22529;-81
2024/04/17 14:39:21;;;;;;;3.30;3.00;;;;;;;7.31;77.77;97698.22;226944;1275;22538;-81
2024/04/17 14:44:23;;;;;;;4.10;3.70;;;;;;;7.10;77.81;97700.11;227044;1273;22546;-81
2024/04/17 14:49:25;;;;;;;4.10;3.70;;;;;;;6.95;78.78;97701.23;226841;1275;24232;-80
2024/04/17 14:54:27;;;;;;;4.60;4.20;;;;;;;6.85;79.08;97708.77;226941;1269;22556;-81
2024/04/17 14:59:30;;;;;;;5.70;5.00;;;;;;;6.87;78.93;97713.76;226817;1275;22555;-81
2024/04/17 15:04:32;;;;;;;5.70;5.20;;;;;;;6.98;79.32;97716.48;226828;1275;22556;-81
2024/04/17 15:09:35;;;;;;;6.30;5.60;;;;;;;7.08;79.06;97716.19;227069;1272;22560;-81
2024/04/17 15:14:37;;;;;;;6.00;5.20;;;;;;;7.08;79.14;97714.24;226826;1275;22648;-81
2024/04/17 15:19:39;;;;;;;6.20;5.60;;;;;;;6.97;78.37;97714.73;226807;1275;22713;-78
2024/04/17 15:24:46;;;;;;;7.00;5.60;;;;;;;6.86;78.76;97718.39;226778;1274;22552;-83
2024/04/17 15:29:48;;;;;;;6.40;5.80;;;;;;;6.74;78.93;97722.71;226808;1274;22532;-79
2024/04/17 15:34:51;;;;;;;6.80;5.90;;;;;;;6.58;78.76;97731.86;226909;1274;22480;-80
2024/04/17 15:39:52;;;;;;;6.60;6.00;;;;;;;6.45;79.29;97728.83;226941;1274;22538;-82
2024/04/17 15:44:55;;;;;;;7.30;6.60;;;;;;;6.33;79.35;97742.77;226752;1273;22533;-82
2024/04/17 15:49:59;;;;;;;7.30;6.60;;;;;;;6.21;80.21;97742.88;226632;1257;22542;-81
2024/04/17 15:55:02;;;;;;;8.00;7.20;;;;;;;6.04;80.56;97750.75;226648;1274;22518;-80
2024/04/17 16:00:06;;;;;;;8.40;7.60;;;;;;;5.89;81.18;97756.34;226678;1261;22569;-78
2024/04/17 16:05:12;;;;;;;10.00;8.30;;;;;;;5.77;81.53;97755.14;226814;1274;22546;-79
2024/04/17 16:10:17;;;;;;;11.30;10.10;;;;;;;5.76;81.73;97759.31;226936;1274;22949;-79
2024/04/17 16:15:19;;;;;;;12.00;9.70;;;;;;;5.79;81.83;97761.80;226917;1274;22538;-80
2024/04/17 16:20:22;;;;;;;11.50;10.20;;;;;;;5.80;81.83;97761.05;226794;1274;22542;-81
2024/04/17 16:25:31;;;;;;;11.60;10.40;;;;;;;5.84;82.21;97764.84;226891;1266;22538;-81
2024/04/17 16:30:35;;;;;;;12.50;11.20;;;;;;;5.87;82.48;97773.00;226647;1274;22571;-81
2024/04/17 16:35:39;;;;;;;13.70;12.40;;;;;;;5.91;82.28;97777.84;226979;1272;22556;-81
2024/04/17 16:40:43;;;;;;;16.20;13.40;;;;;;;5.95;82.28;97781.83;226951;1270;22562;-83
2024/04/17 16:45:50;;;;;;;13.70;11.80;;;;;;;6.00;82.25;97787.41;226631;1274;22695;-81
2024/04/17 16:50:55;;;;;;;14.30;12.60;;;;;;;6.01;81.95;97789.49;226612;1274;22540;-81
2024/04/17 16:55:58;;;;;;;14.10;12.60;;;;;;;6.03;81.49;97795.08;226811;1274;22553;-81
2024/04/17 17:01:04;;;;;;;12.90;11.60;;;;;;;6.04;81.64;97801.07;226888;1274;22545;-81
2024/04/17 17:06:07;;;;;;;12.70;11.40;;;;;;;6.05;81.56;97806.08;226943;1274;22525;-80
2024/04/17 17:11:10;;;;;;;13.40;11.80;;;;;;;6.05;81.43;97810.80;226913;1274;22630;-81
2024/04/17 17:16:13;;;;;;;12.50;10.90;;;;;;;6.05;81.39;97814.95;226964;1251;24223;-81
2024/04/17 17:21:17;;;;;;;15.30;13.70;;;;;;;6.03;81.14;97819.56;226651;1273;22547;-80
2024/04/17 17:26:20;;;;;;;17.70;14.70;;;;;;;5.99;81.18;97825.56;226798;1274;22539;-81
2024/04/17 17:31:22;;;;;;;16.90;14.70;;;;;;;5.98;80.97;97834.61;226957;1274;22536;-81
2024/04/17 17:36:24;;;;;;;15.10;13.50;;;;;;;5.98;80.92;97842.48;227060;1274;22564;-81
2024/04/17 17:41:28;;;;;;;12.20;10.90;;;;;;;5.96;80.95;97846.93;226746;1274;22549;-80
2024/04/17 17:46:32;;;;;;;12.20;10.90;;;;;;;5.91;80.64;97864.34;226690;1272;22655;-81
2024/04/17 17:51:35;;;;;;;11.70;9.70;;;;;;;5.85;80.32;97868.81;226865;1274;22547;-80
2024/04/17 17:56:37;;;;;;;12.70;10.90;;;;;;;5.81;80.19;97875.24;226768;1274;25255;-80
2024/04/17 18:01:44;;;;;;;12.60;11.10;;;;;;;5.77;80.21;97882.14;226927;1271;23312;-81
2024/04/17 18:06:48;;;;;;;15.80;12.20;;;;;;;5.76;80.36;97886.52;226698;1274;25071;-82
2024/04/17 18:11:51;;;;;;;17.10;12.00;;;;;;;5.75;80.16;97889.41;226631;1274;22551;-80
2024/04/17 18:16:54;;;;;;;16.70;13.00;;;;;;;5.75;80.61;97890.62;226843;1274;24301;-80
2024/04/17 18:21:56;;;;;;;15.70;12.80;;;;;;;5.76;80.37;97898.25;226798;1261;22533;-80
2024/04/17 18:26:59;;;;;;;16.10;14.30;;;;;;;5.78;80.59;97904.48;226848;1274;22538;-81
2024/04/17 18:32:01;;;;;;;16.10;14.20;;;;;;;5.78;80.91;97905.90;226993;1271;22544;-79
2024/04/17 18:37:04;;;;;;;15.40;13.80;;;;;;;5.78;80.80;97910.95;226721;1274;22632;-80
2024/04/17 18:42:06;;;;;;;15.60;13.00;;;;;;;5.78;80.77;97915.78;226709;1274;22598;-80
2024/04/17 18:47:09;;;;;;;16.80;13.40;;;;;;;5.78;80.97;97921.52;226658;1266;22682;-80
2024/04/17 18:52:11;;;;;;;17.30;15.00;;;;;;;5.78;80.61;97926.51;226830;1274;24405;-81
2024/04/17 18:57:14;;;;;;;15.70;13.80;;;;;;;5.77;80.72;97928.64;226821;1274;22557;-81
2024/04/17 19:02:17;;;;;;;14.70;13.00;;;;;;;5.78;81.13;97934.89;226853;1272;22538;-79
2024/04/17 19:07:20;;;;;;;13.90;12.00;;;;;;;5.77;81.28;97935.33;226994;1272;24428;-82
2024/04/17 19:12:27;;;;;;;14.40;12.90;;;;;;;5.76;81.49;97937.77;226870;1274;22483;-81
2024/04/17 19:17:29;;;;;;;15.90;13.00;;;;;;;5.76;81.41;97941.03;226979;1274;22557;-80
2024/04/17 19:22:34;;;;;;;15.80;13.00;;;;;;;5.77;81.42;97938.34;226710;1274;22613;-81
2024/04/17 19:27:36;;;;;;;16.60;13.80;;;;;;;5.78;81.40;97939.64;226786;1272;22560;-82
2024/04/17 19:32:44;;;;;;;14.30;12.40;;;;;;;5.78;81.29;97936.59;226760;1274;24225;-82
2024/04/17 19:37:46;;;;;;;15.50;11.90;;;;;;;5.78;81.51;97938.89;226930;1274;24242;-82
2024/04/17 19:42:49;;;;;;;13.90;11.70;;;;;;;5.76;81.46;97937.73;226961;1272;25093;-82
2024/04/17 19:48:00;;;;;;;14.20;11.90;;;;;;;5.74;81.78;97939.91;226744;1259;24265;-81
2024/04/17 19:53:03;;;;;;;15.10;11.80;;;;;;;5.74;81.56;97942.10;226630;1274;22569;-82
2024/04/17 19:58:05;;;;;;;13.90;11.00;;;;;;;5.74;81.46;97944.02;226859;1274;22534;-81
2024/04/17 20:03:07;;;;;;;12.50;10.90;;;;;;;5.73;81.56;97943.77;226689;1274;22652;-81
2024/04/17 20:08:09;;;;;;;15.60;10.10;;;;;;;5.73;81.61;97942.72;226743;1274;23402;-77
2024/04/17 20:13:15;;;;;;;12.50;10.70;;;;;;;5.73;81.51;97945.77;226713;1274;22574;-81
2024/04/17 20:18:21;;;;;;;14.40;11.40;;;;;;;5.71;81.53;97941.10;226948;1269;23251;-82
2024/04/17 20:23:24;;;;;;;12.00;10.30;;;;;;;5.66;81.41;97942.64;226971;1272;22552;-82
2024/04/17 20:28:27;;;;;;;14.80;11.50;;;;;;;5.65;81.56;97946.08;226913;1272;25991;-79
2024/04/17 20:33:31;;;;;;;14.30;11.70;;;;;;;5.63;81.70;97940.91;226727;1272;24944;-79
2024/04/17 20:38:34;;;;;;;14.20;12.30;;;;;;;5.60;81.80;97942.48;226912;1270;22565;-81
2024/04/17 20:43:36;;;;;;;12.80;11.00;;;;;;;5.56;81.58;97939.10;226858;1272;22548;-80
2024/04/17 20:48:39;;;;;;;13.60;11.70;;;;;;;5.46;81.86;97944.89;226664;1274;22545;-81
2024/04/17 20:53:43;;;;;;;14.10;11.90;;;;;;;5.32;82.11;97946.27;227075;1266;22565;-81
2024/04/17 20:58:47;;;;;;;17.80;12.60;;;;;;;5.15;82.18;97946.42;227045;1272;22542;-81
2024/04/17 21:03:49;;;;;;;15.30;12.90;;;;;;;4.99;82.19;97952.35;226571;1274;22544;-80
2024/04/17 21:08:58;;;;;;;16.90;12.70;;;;;;;4.83;82.40;97959.49;226808;1274;22552;-79
2024/04/17 21:14:00;;;;;;;19.50;13.70;;;;;;;4.67;82.73;97957.34;226893;1274;22630;-81
2024/04/17 21:19:02;;;;;;;17.40;13.80;;;;;;;4.52;82.85;97963.19;226885;1274;22537;-80
2024/04/17 21:24:05;;;;;;;18.50;13.90;;;;;;;4.39;83.09;97968.54;226857;1274;22541;-82
2024/04/17 21:29:07;;;;;;;18.00;15.10;;;;;;;4.25;83.24;97968.77;226910;1273;24308;-79
2024/04/17 21:34:10;;;;;;;23.10;15.90;;;;;;;4.13;83.50;97969.79;226788;1272;22544;-81
2024/04/17 21:39:12;;;;;;;18.20;14.20;;;;;;;4.02;83.84;97971.64;226785;1274;22534;-81
2024/04/17 21:44:14;;;;;;;21.40;14.80;;;;;;;3.92;83.83;97968.73;226733;1274;26089;-80
2024/04/17 21:49:16;;;;;;;17.70;14.50;;;;;;;3.82;84.08;97971.44;226797;1273;22585;-81
2024/04/17 21:54:18;;;;;;;20.20;14.70;;;;;;;3.72;84.19;97973.73;226965;1270;22641;-80
2024/04/17 21:59:20;;;;;;;18.00;15.50;;;;;;;3.63;84.11;97976.13;226818;1274;22559;-81
2024/04/17 22:04:22;;;;;;;19.50;15.80;;;;;;;3.56;84.40;97975.68;226855;1274;23087;-82
2024/04/17 22:09:24;;;;;;;21.50;16.30;;;;;;;3.50;84.51;97978.19;226707;1274;22538;-80
2024/04/17 22:14:26;;;;;;;21.70;15.90;;;;;;;3.43;84.56;97982.02;227028;1269;25259;-79
2024/04/17 22:19:31;;;;;;;20.60;15.50;;;;;;;3.36;84.72;97981.55;226749;1274;22547;-80
2024/04/17 22:24:32;;;;;;;20.40;16.60;;;;;;;3.30;84.80;97983.59;226804;1274;22518;-80
2024/04/17 22:29:36;;;;;;;20.20;15.70;;;;;;;3.23;84.79;97984.90;226753;1251;22575;-81
2024/04/17 22:34:38;;;;;;;21.50;16.50;;;;;;;3.15;84.95;97992.48;226811;1271;22588;-79
2024/04/17 22:39:39;;;;;;;18.10;14.60;;;;;;;3.09;85.12;97988.13;227004;1269;24194;-80
2024/04/17 22:44:42;;;;;;;20.90;15.30;;;;;;;3.01;85.06;97990.70;226867;1274;22646;-80
2024/04/17 22:49:52;;;;;;;19.50;15.50;;;;;;;2.93;85.21;97987.90;226875;1272;22535;-80
2024/04/17 22:54:53;;;;;;;19.50;16.30;;;;;;;2.87;85.21;97989.38;226691;1274;22550;-80
2024/04/17 22:59:55;;;;;;;19.20;15.90;;;;;;;2.79;85.28;97994.21;226932;1272;22553;-80
2024/04/17 23:04:57;;;;;;;22.00;17.00;;;;;;;2.72;85.38;97995.03;226811;1274;22546;-81
2024/04/17 23:09:59;;;;;;;22.30;16.70;;;;;;;2.68;85.38;97990.80;226873;1274;24920;-81
2024/04/17 23:15:01;;;;;;;21.10;16.60;;;;;;;2.61;85.40;97992.55;226836;1274;22534;-80
2024/04/17 23:20:03;;;;;;;24.70;17.00;;;;;;;2.54;85.56;97998.19;226807;1270;22537;-81
2024/04/17 23:25:07;;;;;;;25.20;18.30;;;;;;;2.47;85.69;98000.74;227037;1274;22588;-81
2024/04/17 23:30:09;;;;;;;25.70;19.90;;;;;;;2.44;85.78;98006.78;227090;1272;22554;-80
2024/04/17 23:35:11;;;;;;;30.40;23.80;;;;;;;2.41;85.97;98004.38;226813;1274;22576;-82